ADDS METAR Data INFO
IDs: Format: Raw Decoded Include TAF

Data at: 1009 UTC 12 Dec 2017

METAR for:KVRB (Vero Beach Muni, FL, US)
Text:KVRB 120953Z AUTO 00000KT 10SM CLR 04/03 A3008 RMK AO2 SLP185 T00440033
Temperature: 4.4°C ( 40°F)
Dewpoint: 3.3°C ( 38°F) [RH = 93%]
Pressure (altimeter):30.08 inches Hg (1018.7 mb) [Sea level pressure: 1018.5 mb]
Winds:calm
Visibility:10 or more sm (16+ km)
Ceiling:at least 12,000 feet AGL
Clouds:sky clear below 12,000 feet AGL
QC Flag:automated observation with no human augmentation